sensor_id;sensor_type;location;lat;lon;timestamp;P1;durP1;ratioP1;P2;durP2;ratioP2
84054;SDS011;74141;51.504;7.122;2024-01-15T00:00:00;60.23;;;25.07;;
84054;SDS011;74141;51.504;7.122;2024-01-15T00:02:26;61.75;;;24.52;;
84054;SDS011;74141;51.504;7.122;2024-01-15T00:04:51;52.83;;;23.07;;
84054;SDS011;74141;51.504;7.122;2024-01-15T00:07:16;59.53;;;23.87;;
84054;SDS011;74141;51.504;7.122;2024-01-15T00:09:42;56.57;;;21.90;;
84054;SDS011;74141;51.504;7.122;2024-01-15T00:12:07;57.70;;;20.90;;
84054;SDS011;74141;51.504;7.122;2024-01-15T00:14:32;48.13;;;20.98;;
84054;SDS011;74141;51.504;7.122;2024-01-15T00:16:58;59.60;;;22.20;;
84054;SDS011;74141;51.504;7.122;2024-01-15T00:19:23;57.95;;;24.58;;
84054;SDS011;74141;51.504;7.122;2024-01-15T00:21:49;55.08;;;24.92;;
84054;SDS011;74141;51.504;7.122;2024-01-15T00:24:14;54.03;;;24.55;;
84054;SDS011;74141;51.504;7.122;2024-01-15T00:26:40;46.90;;;23.37;;
84054;SDS011;74141;51.504;7.122;2024-01-15T00:29:06;50.55;;;21.80;;
84054;SDS011;74141;51.504;7.122;2024-01-15T00:31:32;47.88;;;20.52;;
84054;SDS011;74141;51.504;7.122;2024-01-15T00:33:58;43.77;;;19.40;;
84054;SDS011;74141;51.504;7.122;2024-01-15T00:36:23;51.53;;;21.90;;
84054;SDS011;74141;51.504;7.122;2024-01-15T00:38:48;51.00;;;22.63;;
84054;SDS011;74141;51.504;7.122;2024-01-15T00:41:14;48.38;;;21.92;;
84054;SDS011;74141;51.504;7.122;2024-01-15T00:43:39;42.05;;;19.27;;
84054;SDS011;74141;51.504;7.122;2024-01-15T00:46:05;49.23;;;22.87;;
84054;SDS011;74141;51.504;7.122;2024-01-15T00:48:30;45.88;;;21.67;;
84054;SDS011;74141;51.504;7.122;2024-01-15T00:50:56;44.67;;;20.15;;
84054;SDS011;74141;51.504;7.122;2024-01-15T00:53:21;50.50;;;21.55;;
84054;SDS011;74141;51.504;7.122;2024-01-15T00:55:47;57.08;;;22.23;;
84054;SDS011;74141;51.504;7.122;2024-01-15T00:58:13;43.42;;;19.92;;
84054;SDS011;74141;51.504;7.122;2024-01-15T01:00:38;44.57;;;20.47;;
84054;SDS011;74141;51.504;7.122;2024-01-15T01:03:03;44.73;;;18.60;;
84054;SDS011;74141;51.504;7.122;2024-01-15T01:05:28;40.78;;;17.83;;
84054;SDS011;74141;51.504;7.122;2024-01-15T01:07:54;46.93;;;19.57;;
84054;SDS011;74141;51.504;7.122;2024-01-15T01:10:19;45.43;;;19.53;;
84054;SDS011;74141;51.504;7.122;2024-01-15T01:12:44;56.33;;;23.47;;
84054;SDS011;74141;51.504;7.122;2024-01-15T01:15:10;46.17;;;19.97;;
84054;SDS011;74141;51.504;7.122;2024-01-15T01:17:35;43.33;;;21.20;;
84054;SDS011;74141;51.504;7.122;2024-01-15T01:20:00;45.08;;;19.58;;
84054;SDS011;74141;51.504;7.122;2024-01-15T01:22:29;46.85;;;19.30;;
84054;SDS011;74141;51.504;7.122;2024-01-15T01:24:54;44.03;;;18.27;;
84054;SDS011;74141;51.504;7.122;2024-01-15T01:27:19;44.07;;;18.43;;
84054;SDS011;74141;51.504;7.122;2024-01-15T01:29:45;38.03;;;18.23;;
84054;SDS011;74141;51.504;7.122;2024-01-15T01:32:10;44.77;;;19.63;;
84054;SDS011;74141;51.504;7.122;2024-01-15T01:34:39;39.10;;;17.57;;
84054;SDS011;74141;51.504;7.122;2024-01-15T01:37:09;40.05;;;19.13;;
84054;SDS011;74141;51.504;7.122;2024-01-15T01:39:43;42.53;;;18.98;;
84054;SDS011;74141;51.504;7.122;2024-01-15T01:42:08;40.10;;;17.45;;
84054;SDS011;74141;51.504;7.122;2024-01-15T01:44:34;40.63;;;18.42;;
84054;SDS011;74141;51.504;7.122;2024-01-15T01:46:59;37.97;;;18.95;;
84054;SDS011;74141;51.504;7.122;2024-01-15T01:49:25;41.70;;;19.15;;
84054;SDS011;74141;51.504;7.122;2024-01-15T01:51:52;43.00;;;18.48;;
84054;SDS011;74141;51.504;7.122;2024-01-15T01:54:18;35.45;;;18.73;;
84054;SDS011;74141;51.504;7.122;2024-01-15T01:56:44;40.17;;;19.17;;
84054;SDS011;74141;51.504;7.122;2024-01-15T01:59:11;38.08;;;18.70;;
84054;SDS011;74141;51.504;7.122;2024-01-15T02:01:38;42.65;;;19.42;;
84054;SDS011;74141;51.504;7.122;2024-01-15T02:04:12;35.88;;;19.02;;
84054;SDS011;74141;51.504;7.122;2024-01-15T02:06:37;37.13;;;16.10;;
84054;SDS011;74141;51.504;7.122;2024-01-15T02:09:12;38.67;;;18.37;;
84054;SDS011;74141;51.504;7.122;2024-01-15T02:11:40;42.78;;;19.42;;
84054;SDS011;74141;51.504;7.122;2024-01-15T02:14:12;39.00;;;19.40;;
84054;SDS011;74141;51.504;7.122;2024-01-15T02:16:38;29.30;;;13.57;;
84054;SDS011;74141;51.504;7.122;2024-01-15T02:19:15;32.30;;;16.85;;
84054;SDS011;74141;51.504;7.122;2024-01-15T02:21:42;35.38;;;16.80;;
84054;SDS011;74141;51.504;7.122;2024-01-15T02:24:13;37.97;;;18.33;;
84054;SDS011;74141;51.504;7.122;2024-01-15T02:26:38;34.60;;;16.42;;
84054;SDS011;74141;51.504;7.122;2024-01-15T02:29:13;32.88;;;16.27;;
84054;SDS011;74141;51.504;7.122;2024-01-15T02:31:39;34.30;;;16.75;;
84054;SDS011;74141;51.504;7.122;2024-01-15T02:34:10;36.33;;;16.97;;
84054;SDS011;74141;51.504;7.122;2024-01-15T02:36:36;37.58;;;16.77;;
84054;SDS011;74141;51.504;7.122;2024-01-15T02:39:01;38.60;;;17.50;;
84054;SDS011;74141;51.504;7.122;2024-01-15T02:41:26;42.63;;;17.57;;
84054;SDS011;74141;51.504;7.122;2024-01-15T02:43:52;41.30;;;17.95;;
84054;SDS011;74141;51.504;7.122;2024-01-15T02:46:17;39.28;;;17.67;;
84054;SDS011;74141;51.504;7.122;2024-01-15T02:48:42;32.67;;;15.82;;
84054;SDS011;74141;51.504;7.122;2024-01-15T02:51:14;39.08;;;15.85;;
84054;SDS011;74141;51.504;7.122;2024-01-15T02:53:39;34.00;;;15.93;;
84054;SDS011;74141;51.504;7.122;2024-01-15T02:56:14;40.80;;;16.40;;
84054;SDS011;74141;51.504;7.122;2024-01-15T02:58:39;30.90;;;14.07;;
84054;SDS011;74141;51.504;7.122;2024-01-15T03:01:04;37.17;;;13.70;;
84054;SDS011;74141;51.504;7.122;2024-01-15T03:03:29;28.75;;;13.05;;
84054;SDS011;74141;51.504;7.122;2024-01-15T03:05:55;34.17;;;15.27;;
84054;SDS011;74141;51.504;7.122;2024-01-15T03:08:20;36.22;;;15.63;;
84054;SDS011;74141;51.504;7.122;2024-01-15T03:10:47;29.38;;;13.63;;
84054;SDS011;74141;51.504;7.122;2024-01-15T03:13:12;34.17;;;15.03;;
84054;SDS011;74141;51.504;7.122;2024-01-15T03:15:38;28.67;;;13.70;;
84054;SDS011;74141;51.504;7.122;2024-01-15T03:18:03;36.70;;;15.47;;
84054;SDS011;74141;51.504;7.122;2024-01-15T03:20:28;25.90;;;11.93;;
84054;SDS011;74141;51.504;7.122;2024-01-15T03:22:54;27.13;;;13.40;;
84054;SDS011;74141;51.504;7.122;2024-01-15T03:25:19;23.37;;;12.27;;
84054;SDS011;74141;51.504;7.122;2024-01-15T03:27:44;35.20;;;14.27;;
84054;SDS011;74141;51.504;7.122;2024-01-15T03:30:10;31.87;;;13.23;;
84054;SDS011;74141;51.504;7.122;2024-01-15T03:32:35;25.73;;;11.98;;
84054;SDS011;74141;51.504;7.122;2024-01-15T03:35:01;29.33;;;13.80;;
84054;SDS011;74141;51.504;7.122;2024-01-15T03:37:26;29.73;;;13.95;;
84054;SDS011;74141;51.504;7.122;2024-01-15T03:39:51;25.43;;;10.83;;
84054;SDS011;74141;51.504;7.122;2024-01-15T03:42:16;29.20;;;11.90;;
84054;SDS011;74141;51.504;7.122;2024-01-15T03:44:42;29.77;;;13.43;;
84054;SDS011;74141;51.504;7.122;2024-01-15T03:47:07;23.38;;;10.98;;
84054;SDS011;74141;51.504;7.122;2024-01-15T03:49:32;19.67;;;10.83;;
84054;SDS011;74141;51.504;7.122;2024-01-15T03:51:58;28.43;;;12.37;;
84054;SDS011;74141;51.504;7.122;2024-01-15T03:54:23;20.40;;;11.97;;
84054;SDS011;74141;51.504;7.122;2024-01-15T03:56:48;33.53;;;12.33;;
84054;SDS011;74141;51.504;7.122;2024-01-15T03:59:13;25.80;;;11.73;;
84054;SDS011;74141;51.504;7.122;2024-01-15T04:01:39;25.03;;;11.83;;
84054;SDS011;74141;51.504;7.122;2024-01-15T04:04:04;21.97;;;10.90;;
84054;SDS011;74141;51.504;7.122;2024-01-15T04:06:29;19.07;;;10.37;;
84054;SDS011;74141;51.504;7.122;2024-01-15T04:08:54;27.87;;;12.30;;
84054;SDS011;74141;51.504;7.122;2024-01-15T04:11:20;22.13;;;11.03;;
84054;SDS011;74141;51.504;7.122;2024-01-15T04:13:45;21.98;;;9.88;;
84054;SDS011;74141;51.504;7.122;2024-01-15T04:16:10;23.03;;;11.57;;
84054;SDS011;74141;51.504;7.122;2024-01-15T04:18:35;23.85;;;9.60;;
84054;SDS011;74141;51.504;7.122;2024-01-15T04:21:03;20.27;;;11.05;;
84054;SDS011;74141;51.504;7.122;2024-01-15T04:23:30;22.58;;;11.02;;
84054;SDS011;74141;51.504;7.122;2024-01-15T04:25:55;19.40;;;9.67;;
84054;SDS011;74141;51.504;7.122;2024-01-15T04:28:20;23.53;;;11.13;;
84054;SDS011;74141;51.504;7.122;2024-01-15T04:30:46;22.63;;;10.67;;
84054;SDS011;74141;51.504;7.122;2024-01-15T04:33:11;21.17;;;10.83;;
84054;SDS011;74141;51.504;7.122;2024-01-15T04:35:37;20.70;;;11.27;;
84054;SDS011;74141;51.504;7.122;2024-01-15T04:38:02;27.42;;;12.23;;
84054;SDS011;74141;51.504;7.122;2024-01-15T04:40:27;23.13;;;11.18;;
84054;SDS011;74141;51.504;7.122;2024-01-15T04:42:53;23.75;;;11.80;;
84054;SDS011;74141;51.504;7.122;2024-01-15T04:45:19;22.73;;;11.98;;
84054;SDS011;74141;51.504;7.122;2024-01-15T04:47:44;21.08;;;11.43;;
84054;SDS011;74141;51.504;7.122;2024-01-15T04:50:10;24.83;;;11.00;;
84054;SDS011;74141;51.504;7.122;2024-01-15T04:52:35;22.20;;;11.43;;
84054;SDS011;74141;51.504;7.122;2024-01-15T04:55:00;22.40;;;13.30;;
84054;SDS011;74141;51.504;7.122;2024-01-15T04:57:25;26.80;;;12.53;;
84054;SDS011;74141;51.504;7.122;2024-01-15T04:59:51;27.03;;;12.30;;
84054;SDS011;74141;51.504;7.122;2024-01-15T05:02:16;27.67;;;12.60;;
84054;SDS011;74141;51.504;7.122;2024-01-15T05:04:41;23.80;;;12.40;;
84054;SDS011;74141;51.504;7.122;2024-01-15T05:07:06;35.93;;;15.67;;
84054;SDS011;74141;51.504;7.122;2024-01-15T05:09:32;24.50;;;12.53;;
84054;SDS011;74141;51.504;7.122;2024-01-15T05:11:57;23.30;;;11.25;;
84054;SDS011;74141;51.504;7.122;2024-01-15T05:14:22;19.17;;;10.17;;
84054;SDS011;74141;51.504;7.122;2024-01-15T05:16:48;20.60;;;10.57;;
84054;SDS011;74141;51.504;7.122;2024-01-15T05:19:14;21.83;;;10.88;;
84054;SDS011;74141;51.504;7.122;2024-01-15T05:21:39;19.38;;;9.43;;
84054;SDS011;74141;51.504;7.122;2024-01-15T05:24:04;26.30;;;12.77;;
84054;SDS011;74141;51.504;7.122;2024-01-15T05:26:30;20.67;;;10.93;;
84054;SDS011;74141;51.504;7.122;2024-01-15T05:28:55;27.97;;;12.33;;
84054;SDS011;74141;51.504;7.122;2024-01-15T05:31:20;19.17;;;10.30;;
84054;SDS011;74141;51.504;7.122;2024-01-15T05:33:46;16.35;;;10.43;;
84054;SDS011;74141;51.504;7.122;2024-01-15T05:36:11;22.92;;;10.98;;
84054;SDS011;74141;51.504;7.122;2024-01-15T05:38:36;20.20;;;10.80;;
84054;SDS011;74141;51.504;7.122;2024-01-15T05:41:01;24.70;;;11.40;;
84054;SDS011;74141;51.504;7.122;2024-01-15T05:43:27;12.60;;;7.25;;
84054;SDS011;74141;51.504;7.122;2024-01-15T05:45:52;18.90;;;9.95;;
84054;SDS011;74141;51.504;7.122;2024-01-15T05:48:17;23.23;;;10.83;;
84054;SDS011;74141;51.504;7.122;2024-01-15T05:50:43;24.00;;;10.90;;
84054;SDS011;74141;51.504;7.122;2024-01-15T05:53:08;20.73;;;10.13;;
84054;SDS011;74141;51.504;7.122;2024-01-15T05:55:35;17.17;;;10.15;;
84054;SDS011;74141;51.504;7.122;2024-01-15T05:58:01;18.92;;;9.45;;
84054;SDS011;74141;51.504;7.122;2024-01-15T06:00:26;20.35;;;11.07;;
84054;SDS011;74141;51.504;7.122;2024-01-15T06:02:51;19.53;;;9.17;;
84054;SDS011;74141;51.504;7.122;2024-01-15T06:05:16;19.07;;;10.33;;
84054;SDS011;74141;51.504;7.122;2024-01-15T06:07:42;23.40;;;10.77;;
84054;SDS011;74141;51.504;7.122;2024-01-15T06:10:07;17.37;;;8.73;;
84054;SDS011;74141;51.504;7.122;2024-01-15T06:12:33;19.33;;;9.88;;
84054;SDS011;74141;51.504;7.122;2024-01-15T06:14:58;24.52;;;10.40;;
84054;SDS011;74141;51.504;7.122;2024-01-15T06:17:24;18.63;;;9.95;;
84054;SDS011;74141;51.504;7.122;2024-01-15T06:19:49;18.45;;;9.82;;
84054;SDS011;74141;51.504;7.122;2024-01-15T06:22:14;18.00;;;8.88;;
84054;SDS011;74141;51.504;7.122;2024-01-15T06:24:39;15.82;;;8.82;;
84054;SDS011;74141;51.504;7.122;2024-01-15T06:27:05;24.67;;;9.00;;
84054;SDS011;74141;51.504;7.122;2024-01-15T06:29:30;15.18;;;8.43;;
84054;SDS011;74141;51.504;7.122;2024-01-15T06:31:55;15.80;;;8.53;;
84054;SDS011;74141;51.504;7.122;2024-01-15T06:34:21;19.33;;;9.43;;
84054;SDS011;74141;51.504;7.122;2024-01-15T06:36:46;18.33;;;9.47;;
84054;SDS011;74141;51.504;7.122;2024-01-15T06:39:11;12.18;;;7.40;;
84054;SDS011;74141;51.504;7.122;2024-01-15T06:41:37;23.35;;;11.10;;
84054;SDS011;74141;51.504;7.122;2024-01-15T06:44:08;18.02;;;10.05;;
84054;SDS011;74141;51.504;7.122;2024-01-15T06:46:35;16.73;;;10.07;;
84054;SDS011;74141;51.504;7.122;2024-01-15T06:49:01;18.70;;;9.88;;
84054;SDS011;74141;51.504;7.122;2024-01-15T06:51:26;18.53;;;11.37;;
84054;SDS011;74141;51.504;7.122;2024-01-15T06:53:51;23.13;;;10.73;;
84054;SDS011;74141;51.504;7.122;2024-01-15T06:56:16;20.73;;;11.03;;
84054;SDS011;74141;51.504;7.122;2024-01-15T06:58:42;21.55;;;9.68;;
84054;SDS011;74141;51.504;7.122;2024-01-15T07:01:07;18.67;;;10.33;;
84054;SDS011;74141;51.504;7.122;2024-01-15T07:03:33;18.73;;;10.32;;
84054;SDS011;74141;51.504;7.122;2024-01-15T07:05:58;20.33;;;11.45;;
84054;SDS011;74141;51.504;7.122;2024-01-15T07:08:23;19.17;;;9.50;;
84054;SDS011;74141;51.504;7.122;2024-01-15T07:10:48;17.63;;;9.90;;
84054;SDS011;74141;51.504;7.122;2024-01-15T07:13:14;19.93;;;10.83;;
84054;SDS011;74141;51.504;7.122;2024-01-15T07:15:39;18.30;;;9.02;;
84054;SDS011;74141;51.504;7.122;2024-01-15T07:18:04;15.73;;;8.50;;
84054;SDS011;74141;51.504;7.122;2024-01-15T07:20:30;18.88;;;9.70;;
84054;SDS011;74141;51.504;7.122;2024-01-15T07:22:55;14.40;;;8.67;;
84054;SDS011;74141;51.504;7.122;2024-01-15T07:25:21;14.57;;;8.57;;
84054;SDS011;74141;51.504;7.122;2024-01-15T07:27:47;16.10;;;8.63;;
84054;SDS011;74141;51.504;7.122;2024-01-15T07:30:12;18.05;;;8.07;;
84054;SDS011;74141;51.504;7.122;2024-01-15T07:32:38;12.05;;;7.55;;
84054;SDS011;74141;51.504;7.122;2024-01-15T07:35:03;14.50;;;9.20;;
84054;SDS011;74141;51.504;7.122;2024-01-15T07:37:29;16.20;;;7.80;;
84054;SDS011;74141;51.504;7.122;2024-01-15T07:39:54;11.93;;;8.47;;
84054;SDS011;74141;51.504;7.122;2024-01-15T07:42:20;11.33;;;7.20;;
84054;SDS011;74141;51.504;7.122;2024-01-15T07:44:45;14.93;;;7.63;;
84054;SDS011;74141;51.504;7.122;2024-01-15T07:47:10;10.77;;;7.33;;
84054;SDS011;74141;51.504;7.122;2024-01-15T07:49:36;15.82;;;7.28;;
84054;SDS011;74141;51.504;7.122;2024-01-15T07:52:01;12.50;;;7.43;;
84054;SDS011;74141;51.504;7.122;2024-01-15T07:54:26;11.93;;;7.07;;
84054;SDS011;74141;51.504;7.122;2024-01-15T07:56:55;12.43;;;6.03;;
84054;SDS011;74141;51.504;7.122;2024-01-15T07:59:20;14.07;;;6.60;;
84054;SDS011;74141;51.504;7.122;2024-01-15T08:01:45;16.00;;;7.00;;
84054;SDS011;74141;51.504;7.122;2024-01-15T08:04:12;13.13;;;6.25;;
84054;SDS011;74141;51.504;7.122;2024-01-15T08:06:38;11.25;;;5.45;;
84054;SDS011;74141;51.504;7.122;2024-01-15T08:09:03;10.57;;;5.72;;
84054;SDS011;74141;51.504;7.122;2024-01-15T08:11:29;19.45;;;6.72;;
84054;SDS011;74141;51.504;7.122;2024-01-15T08:13:54;9.88;;;5.35;;
84054;SDS011;74141;51.504;7.122;2024-01-15T08:16:20;8.40;;;5.10;;
84054;SDS011;74141;51.504;7.122;2024-01-15T08:18:45;13.80;;;5.60;;
84054;SDS011;74141;51.504;7.122;2024-01-15T08:21:10;16.23;;;6.50;;
84054;SDS011;74141;51.504;7.122;2024-01-15T08:23:35;10.47;;;5.77;;
84054;SDS011;74141;51.504;7.122;2024-01-15T08:26:01;9.50;;;5.77;;
84054;SDS011;74141;51.504;7.122;2024-01-15T08:28:26;9.60;;;5.43;;
84054;SDS011;74141;51.504;7.122;2024-01-15T08:30:51;11.63;;;6.27;;
84054;SDS011;74141;51.504;7.122;2024-01-15T08:33:16;13.13;;;6.73;;
84054;SDS011;74141;51.504;7.122;2024-01-15T08:35:42;17.10;;;9.10;;
84054;SDS011;74141;51.504;7.122;2024-01-15T08:38:07;15.30;;;8.53;;
84054;SDS011;74141;51.504;7.122;2024-01-15T08:40:32;16.00;;;8.38;;
84054;SDS011;74141;51.504;7.122;2024-01-15T08:42:58;19.40;;;10.40;;
84054;SDS011;74141;51.504;7.122;2024-01-15T08:45:23;22.37;;;11.53;;
84054;SDS011;74141;51.504;7.122;2024-01-15T08:47:48;20.08;;;10.88;;
84054;SDS011;74141;51.504;7.122;2024-01-15T08:50:13;21.53;;;13.13;;
84054;SDS011;74141;51.504;7.122;2024-01-15T08:52:39;19.48;;;9.93;;
84054;SDS011;74141;51.504;7.122;2024-01-15T08:55:05;24.73;;;12.75;;
84054;SDS011;74141;51.504;7.122;2024-01-15T08:57:32;21.70;;;11.68;;
84054;SDS011;74141;51.504;7.122;2024-01-15T08:59:57;20.98;;;12.65;;
84054;SDS011;74141;51.504;7.122;2024-01-15T09:02:24;27.23;;;13.88;;
84054;SDS011;74141;51.504;7.122;2024-01-15T09:04:49;25.97;;;13.77;;
84054;SDS011;74141;51.504;7.122;2024-01-15T09:07:15;29.83;;;13.90;;
84054;SDS011;74141;51.504;7.122;2024-01-15T09:09:40;28.50;;;14.63;;
84054;SDS011;74141;51.504;7.122;2024-01-15T09:12:07;26.52;;;14.88;;
84054;SDS011;74141;51.504;7.122;2024-01-15T09:14:32;30.15;;;16.70;;
84054;SDS011;74141;51.504;7.122;2024-01-15T09:16:59;31.40;;;14.63;;
84054;SDS011;74141;51.504;7.122;2024-01-15T09:19:24;27.50;;;14.43;;
84054;SDS011;74141;51.504;7.122;2024-01-15T09:21:49;31.27;;;15.33;;
84054;SDS011;74141;51.504;7.122;2024-01-15T09:24:15;25.30;;;13.18;;
84054;SDS011;74141;51.504;7.122;2024-01-15T09:26:40;23.57;;;12.50;;
84054;SDS011;74141;51.504;7.122;2024-01-15T09:29:05;32.67;;;16.73;;
84054;SDS011;74141;51.504;7.122;2024-01-15T09:31:31;26.85;;;13.80;;
84054;SDS011;74141;51.504;7.122;2024-01-15T09:33:56;34.23;;;16.90;;
84054;SDS011;74141;51.504;7.122;2024-01-15T09:36:22;26.98;;;14.85;;
84054;SDS011;74141;51.504;7.122;2024-01-15T09:38:48;29.10;;;11.80;;
84054;SDS011;74141;51.504;7.122;2024-01-15T09:41:13;28.17;;;13.10;;
84054;SDS011;74141;51.504;7.122;2024-01-15T09:43:40;19.67;;;11.00;;
84054;SDS011;74141;51.504;7.122;2024-01-15T09:46:05;26.15;;;12.35;;
84054;SDS011;74141;51.504;7.122;2024-01-15T09:48:31;30.67;;;12.55;;
84054;SDS011;74141;51.504;7.122;2024-01-15T09:50:59;24.73;;;11.80;;
84054;SDS011;74141;51.504;7.122;2024-01-15T09:53:26;19.83;;;10.32;;
84054;SDS011;74141;51.504;7.122;2024-01-15T09:55:52;19.40;;;10.32;;
84054;SDS011;74141;51.504;7.122;2024-01-15T09:58:18;25.67;;;11.73;;
84054;SDS011;74141;51.504;7.122;2024-01-15T10:00:44;29.73;;;13.27;;
84054;SDS011;74141;51.504;7.122;2024-01-15T10:03:09;24.42;;;13.75;;
84054;SDS011;74141;51.504;7.122;2024-01-15T10:05:36;28.70;;;14.65;;
84054;SDS011;74141;51.504;7.122;2024-01-15T10:08:02;23.00;;;13.82;;
84054;SDS011;74141;51.504;7.122;2024-01-15T10:10:29;24.67;;;13.48;;
84054;SDS011;74141;51.504;7.122;2024-01-15T10:12:54;25.90;;;13.48;;
84054;SDS011;74141;51.504;7.122;2024-01-15T10:15:23;26.77;;;13.48;;
84054;SDS011;74141;51.504;7.122;2024-01-15T10:17:48;24.83;;;13.38;;
84054;SDS011;74141;51.504;7.122;2024-01-15T10:20:14;29.15;;;16.83;;
84054;SDS011;74141;51.504;7.122;2024-01-15T10:22:42;23.88;;;13.77;;
84054;SDS011;74141;51.504;7.122;2024-01-15T10:25:12;21.73;;;11.10;;
84054;SDS011;74141;51.504;7.122;2024-01-15T10:27:38;23.50;;;12.18;;
84054;SDS011;74141;51.504;7.122;2024-01-15T10:30:05;25.45;;;13.68;;
84054;SDS011;74141;51.504;7.122;2024-01-15T10:32:31;24.85;;;13.60;;
84054;SDS011;74141;51.504;7.122;2024-01-15T10:34:56;26.73;;;14.48;;
84054;SDS011;74141;51.504;7.122;2024-01-15T10:37:23;20.73;;;11.95;;
84054;SDS011;74141;51.504;7.122;2024-01-15T10:39:49;23.25;;;12.80;;
84054;SDS011;74141;51.504;7.122;2024-01-15T10:42:14;25.27;;;12.52;;
84054;SDS011;74141;51.504;7.122;2024-01-15T10:44:41;19.75;;;12.50;;
84054;SDS011;74141;51.504;7.122;2024-01-15T10:47:08;22.33;;;12.02;;
84054;SDS011;74141;51.504;7.122;2024-01-15T10:49:33;21.85;;;12.68;;
84054;SDS011;74141;51.504;7.122;2024-01-15T10:51:59;14.13;;;8.65;;
84054;SDS011;74141;51.504;7.122;2024-01-15T10:54:26;19.80;;;10.93;;
84054;SDS011;74141;51.504;7.122;2024-01-15T10:56:52;20.52;;;11.88;;
84054;SDS011;74141;51.504;7.122;2024-01-15T10:59:19;21.25;;;11.27;;
84054;SDS011;74141;51.504;7.122;2024-01-15T11:01:47;23.30;;;11.60;;
84054;SDS011;74141;51.504;7.122;2024-01-15T11:04:13;22.42;;;12.00;;
84054;SDS011;74141;51.504;7.122;2024-01-15T11:06:43;18.85;;;10.82;;
84054;SDS011;74141;51.504;7.122;2024-01-15T11:09:10;17.13;;;9.98;;
84054;SDS011;74141;51.504;7.122;2024-01-15T11:11:39;17.88;;;10.30;;
84054;SDS011;74141;51.504;7.122;2024-01-15T11:14:05;19.40;;;9.93;;
84054;SDS011;74141;51.504;7.122;2024-01-15T11:19:24;18.98;;;9.45;;
84054;SDS011;74141;51.504;7.122;2024-01-15T11:21:49;15.52;;;8.95;;
84054;SDS011;74141;51.504;7.122;2024-01-15T11:24:37;14.70;;;9.63;;
84054;SDS011;74141;51.504;7.122;2024-01-15T11:27:05;16.67;;;9.27;;
84054;SDS011;74141;51.504;7.122;2024-01-15T11:29:36;19.90;;;10.57;;
84054;SDS011;74141;51.504;7.122;2024-01-15T11:37:17;15.07;;;8.68;;
84054;SDS011;74141;51.504;7.122;2024-01-15T11:39:43;13.18;;;8.10;;
84054;SDS011;74141;51.504;7.122;2024-01-15T11:42:09;15.52;;;8.90;;
84054;SDS011;74141;51.504;7.122;2024-01-15T11:44:36;12.40;;;8.10;;
84054;SDS011;74141;51.504;7.122;2024-01-15T11:47:05;13.45;;;8.23;;
84054;SDS011;74141;51.504;7.122;2024-01-15T11:52:22;12.00;;;7.13;;
84054;SDS011;74141;51.504;7.122;2024-01-15T11:57:53;9.75;;;6.80;;
84054;SDS011;74141;51.504;7.122;2024-01-15T12:00:20;14.13;;;7.32;;
84054;SDS011;74141;51.504;7.122;2024-01-15T12:02:46;12.02;;;7.20;;
84054;SDS011;74141;51.504;7.122;2024-01-15T12:05:13;16.70;;;8.88;;
84054;SDS011;74141;51.504;7.122;2024-01-15T12:07:40;13.00;;;8.32;;
84054;SDS011;74141;51.504;7.122;2024-01-15T12:10:09;10.10;;;6.85;;
84054;SDS011;74141;51.504;7.122;2024-01-15T12:15:24;13.40;;;7.90;;
84054;SDS011;74141;51.504;7.122;2024-01-15T12:17:49;11.73;;;7.68;;
84054;SDS011;74141;51.504;7.122;2024-01-15T12:20:15;9.07;;;5.95;;
84054;SDS011;74141;51.504;7.122;2024-01-15T12:22:41;9.73;;;6.70;;
84054;SDS011;74141;51.504;7.122;2024-01-15T12:25:07;8.93;;;6.60;;
84054;SDS011;74141;51.504;7.122;2024-01-15T12:27:32;10.15;;;6.95;;
84054;SDS011;74141;51.504;7.122;2024-01-15T12:29:58;14.38;;;8.35;;
84054;SDS011;74141;51.504;7.122;2024-01-15T12:32:24;16.45;;;7.90;;
84054;SDS011;74141;51.504;7.122;2024-01-15T12:34:50;17.67;;;9.40;;
84054;SDS011;74141;51.504;7.122;2024-01-15T12:37:17;16.23;;;9.40;;
84054;SDS011;74141;51.504;7.122;2024-01-15T12:39:43;10.27;;;6.85;;
84054;SDS011;74141;51.504;7.122;2024-01-15T12:42:09;12.35;;;7.90;;
84054;SDS011;74141;51.504;7.122;2024-01-15T12:44:35;10.30;;;6.65;;
84054;SDS011;74141;51.504;7.122;2024-01-15T12:47:02;11.55;;;6.78;;
84054;SDS011;74141;51.504;7.122;2024-01-15T12:49:29;10.77;;;6.60;;
84054;SDS011;74141;51.504;7.122;2024-01-15T12:51:56;10.43;;;6.70;;
84054;SDS011;74141;51.504;7.122;2024-01-15T12:54:22;13.20;;;6.43;;
84054;SDS011;74141;51.504;7.122;2024-01-15T12:56:49;11.48;;;7.03;;
84054;SDS011;74141;51.504;7.122;2024-01-15T12:59:14;9.05;;;5.53;;
84054;SDS011;74141;51.504;7.122;2024-01-15T13:01:39;8.40;;;5.83;;
84054;SDS011;74141;51.504;7.122;2024-01-15T13:04:06;15.13;;;6.72;;
84054;SDS011;74141;51.504;7.122;2024-01-15T13:06:33;19.02;;;7.82;;
84054;SDS011;74141;51.504;7.122;2024-01-15T13:08:59;14.38;;;7.22;;
84054;SDS011;74141;51.504;7.122;2024-01-15T13:11:24;14.03;;;6.80;;
84054;SDS011;74141;51.504;7.122;2024-01-15T13:13:50;17.25;;;9.05;;
84054;SDS011;74141;51.504;7.122;2024-01-15T13:16:15;14.03;;;8.03;;
84054;SDS011;74141;51.504;7.122;2024-01-15T13:18:40;14.93;;;7.43;;
84054;SDS011;74141;51.504;7.122;2024-01-15T13:21:06;11.68;;;7.60;;
84054;SDS011;74141;51.504;7.122;2024-01-15T13:23:31;10.82;;;7.60;;
84054;SDS011;74141;51.504;7.122;2024-01-15T13:25:56;16.10;;;8.20;;
84054;SDS011;74141;51.504;7.122;2024-01-15T13:28:23;16.25;;;7.07;;
84054;SDS011;74141;51.504;7.122;2024-01-15T13:30:48;12.98;;;6.97;;
84054;SDS011;74141;51.504;7.122;2024-01-15T13:33:13;11.20;;;6.13;;
84054;SDS011;74141;51.504;7.122;2024-01-15T13:35:39;7.88;;;4.38;;
84054;SDS011;74141;51.504;7.122;2024-01-15T13:38:04;7.23;;;4.23;;
84054;SDS011;74141;51.504;7.122;2024-01-15T13:40:29;8.03;;;4.50;;
84054;SDS011;74141;51.504;7.122;2024-01-15T13:42:54;5.53;;;3.17;;
84054;SDS011;74141;51.504;7.122;2024-01-15T13:45:20;5.43;;;3.55;;
84054;SDS011;74141;51.504;7.122;2024-01-15T13:47:45;5.20;;;2.97;;
84054;SDS011;74141;51.504;7.122;2024-01-15T13:50:11;11.65;;;3.80;;
84054;SDS011;74141;51.504;7.122;2024-01-15T13:52:36;4.10;;;2.55;;
84054;SDS011;74141;51.504;7.122;2024-01-15T13:55:02;5.10;;;3.20;;
84054;SDS011;74141;51.504;7.122;2024-01-15T13:57:27;6.28;;;3.72;;
84054;SDS011;74141;51.504;7.122;2024-01-15T13:59:52;6.37;;;3.20;;
84054;SDS011;74141;51.504;7.122;2024-01-15T14:02:17;4.13;;;3.20;;
84054;SDS011;74141;51.504;7.122;2024-01-15T14:04:43;10.33;;;4.07;;
84054;SDS011;74141;51.504;7.122;2024-01-15T14:07:08;9.00;;;4.78;;
84054;SDS011;74141;51.504;7.122;2024-01-15T14:09:33;11.80;;;5.47;;
84054;SDS011;74141;51.504;7.122;2024-01-15T14:11:59;11.30;;;5.95;;
84054;SDS011;74141;51.504;7.122;2024-01-15T14:14:24;11.68;;;6.70;;
84054;SDS011;74141;51.504;7.122;2024-01-15T14:16:50;11.07;;;6.60;;
84054;SDS011;74141;51.504;7.122;2024-01-15T14:19:15;11.37;;;6.37;;
84054;SDS011;74141;51.504;7.122;2024-01-15T14:21:40;8.67;;;4.87;;
84054;SDS011;74141;51.504;7.122;2024-01-15T14:24:06;12.53;;;6.10;;
84054;SDS011;74141;51.504;7.122;2024-01-15T14:26:31;13.60;;;7.38;;
84054;SDS011;74141;51.504;7.122;2024-01-15T14:28:57;18.30;;;6.47;;
84054;SDS011;74141;51.504;7.122;2024-01-15T14:31:23;10.02;;;6.47;;
84054;SDS011;74141;51.504;7.122;2024-01-15T14:33:51;8.75;;;5.03;;
84054;SDS011;74141;51.504;7.122;2024-01-15T14:36:16;15.43;;;6.28;;